createdAt,value
2022-09-26T00:00:59.896Z,28.00
2022-09-26T00:01:44.821Z,28.83
2022-09-26T00:02:25.856Z,28.90
2022-09-26T00:03:05.748Z,28.67
2022-09-26T00:03:53.827Z,28.60
2022-09-26T00:04:32.818Z,28.13
2022-09-26T00:05:20.777Z,27.35
2022-09-26T00:05:54.291Z,27.65
2022-09-26T00:06:42.747Z,26.64
2022-09-26T00:07:16.339Z,26.31
2022-09-26T00:08:03.732Z,26.66
2022-09-26T00:08:37.501Z,26.92
2022-09-26T00:09:18.763Z,26.86
2022-09-26T00:09:54.383Z,25.92
2022-09-26T00:10:41.745Z,25.63
2022-09-26T00:11:18.812Z,25.84
2022-09-26T00:12:05.742Z,26.66
2022-09-26T00:12:39.849Z,26.59
2022-09-26T00:13:26.749Z,27.04
2022-09-26T00:14:02.901Z,28.01
2022-09-26T00:14:42.789Z,27.42
2022-09-26T00:15:22.840Z,27.02
2022-09-26T00:16:03.737Z,27.94
2022-09-26T00:16:44.821Z,28.14
2022-09-26T00:17:24.722Z,27.69
2022-09-26T00:18:04.813Z,26.23
2022-09-26T00:18:45.756Z,26.04
2022-09-26T00:19:25.828Z,25.29
2022-09-26T00:20:05.786Z,24.91
2022-09-26T00:20:45.867Z,24.74
2022-09-26T00:21:26.730Z,24.76
2022-09-26T00:22:06.817Z,24.66
2022-09-26T00:22:46.744Z,23.54
2022-09-26T00:23:26.818Z,23.61
2022-09-26T00:24:08.731Z,24.35
2022-09-26T00:24:48.816Z,24.02
2022-09-26T00:25:28.765Z,24.21
2022-09-26T00:26:09.875Z,24.29
2022-09-26T00:26:50.761Z,24.11
2022-09-26T00:27:30.856Z,24.95
2022-09-26T00:28:10.759Z,25.10
2022-09-26T00:28:50.815Z,25.44
2022-09-26T00:29:31.728Z,25.23
2022-09-26T00:30:12.275Z,25.46
2022-09-26T00:30:52.827Z,26.33
2022-09-26T00:31:37.837Z,26.99
2022-09-26T00:32:17.764Z,27.29
2022-09-26T00:32:57.790Z,27.85
2022-09-26T00:33:39.005Z,27.74
2022-09-26T00:34:20.902Z,27.74
2022-09-26T00:35:00.694Z,27.56
2022-09-26T00:35:40.818Z,27.39
2022-09-26T00:36:26.831Z,26.80
2022-09-26T00:37:16.894Z,26.26
2022-09-26T00:37:57.729Z,25.77
2022-09-26T00:38:37.812Z,25.95
2022-09-26T00:39:20.704Z,26.08
2022-09-26T00:40:00.910Z,26.05
2022-09-26T00:40:40.747Z,27.20
2022-09-26T00:41:28.772Z,29.76
2022-09-26T00:42:29.707Z,30.70
2022-09-26T00:44:02.704Z,32.09
2022-09-26T00:45:05.823Z,31.39
2022-09-26T00:45:59.801Z,31.40
2022-09-26T00:46:53.730Z,30.85
2022-09-26T00:47:50.842Z,29.26
2022-09-26T00:48:38.713Z,28.96
2022-09-26T00:49:26.790Z,29.29
2022-09-26T00:50:29.691Z,28.67
2022-09-26T00:51:03.794Z,27.64
2022-09-26T00:52:14.764Z,27.59
2022-09-26T00:52:59.849Z,28.51
2022-09-26T00:53:50.724Z,29.24
2022-09-26T00:54:25.804Z,30.16
2022-09-26T00:55:13.793Z,30.49
2022-09-26T00:55:52.797Z,32.06
2022-09-26T00:56:42.716Z,35.67
2022-09-26T00:57:37.759Z,43.15
2022-09-26T00:58:52.712Z,49.44
2022-09-26T00:59:53.712Z,48.89
2022-09-26T01:00:47.777Z,40.34
2022-09-26T01:01:41.846Z,36.41
2022-09-26T01:02:35.754Z,34.40
2022-09-26T01:03:15.691Z,31.83
2022-09-26T01:03:56.771Z,29.94
2022-09-26T01:04:40.688Z,28.63
2022-09-26T01:05:22.759Z,27.23
2022-09-26T01:06:02.675Z,27.63
2022-09-26T01:06:42.780Z,27.00
2022-09-26T01:07:28.684Z,25.96
2022-09-26T01:08:08.731Z,25.60
2022-09-26T01:08:46.724Z,26.11
2022-09-26T01:09:33.703Z,25.51
2022-09-26T01:10:10.226Z,25.81
2022-09-26T01:10:57.722Z,26.15
2022-09-26T01:11:32.337Z,25.66
2022-09-26T01:12:20.689Z,25.58
2022-09-26T01:12:54.749Z,25.50
2022-09-26T01:13:36.727Z,25.44
2022-09-26T01:14:18.806Z,25.90
2022-09-26T01:15:00.667Z,25.25
2022-09-26T01:15:40.847Z,25.16
2022-09-26T01:16:20.743Z,25.71
2022-09-26T01:17:02.079Z,25.16
2022-09-26T01:17:44.764Z,25.02
2022-09-26T01:18:24.776Z,25.40
2022-09-26T01:19:05.864Z,25.83
2022-09-26T01:19:50.399Z,25.38
2022-09-26T01:20:33.725Z,25.14
2022-09-26T01:21:37.746Z,25.17
2022-09-26T01:22:28.648Z,24.84
2022-09-26T01:23:24.767Z,25.11
2022-09-26T01:24:43.704Z,24.89
2022-09-26T01:25:53.756Z,25.45
2022-09-26T01:26:46.667Z,25.49
2022-09-26T01:27:50.748Z,25.35
2022-09-26T01:28:46.671Z,26.16
2022-09-26T01:29:39.023Z,26.02
2022-09-26T01:30:21.735Z,26.09
2022-09-26T01:31:13.945Z,25.31
2022-09-26T01:32:36.660Z,25.21
2022-09-26T01:33:24.394Z,25.51
2022-09-26T01:34:20.704Z,25.69
2022-09-26T01:35:19.816Z,25.50
2022-09-26T01:36:17.720Z,26.08
2022-09-26T01:37:37.265Z,25.02
2022-09-26T01:38:50.653Z,25.29
2022-09-26T01:39:44.756Z,25.08
2022-09-26T01:40:58.684Z,25.40
2022-09-26T01:42:15.764Z,25.30
2022-09-26T01:43:21.802Z,25.42
2022-09-26T01:44:35.669Z,25.51
2022-09-26T01:45:18.975Z,24.90
2022-09-26T01:46:37.661Z,24.40
2022-09-26T01:47:27.725Z,24.48
2022-09-26T01:48:16.787Z,24.69
2022-09-26T01:49:15.829Z,24.51
2022-09-26T01:49:58.688Z,24.13
2022-09-26T01:50:54.720Z,24.46
2022-09-26T01:51:33.217Z,24.50
2022-09-26T01:52:41.858Z,24.60
2022-09-26T01:53:33.472Z,24.74
2022-09-26T01:54:28.815Z,24.65
2022-09-26T01:55:13.469Z,24.16
2022-09-26T01:56:23.657Z,24.51
2022-09-26T01:56:58.687Z,25.26
2022-09-26T01:57:51.724Z,25.64
2022-09-26T01:58:33.085Z,24.61
2022-09-26T01:59:29.988Z,24.94
2022-09-26T02:00:07.145Z,24.64
2022-09-26T02:00:56.683Z,24.19
2022-09-26T02:01:34.052Z,24.64
2022-09-26T02:02:33.724Z,24.83
2022-09-26T02:03:17.683Z,25.40
2022-09-26T02:04:04.676Z,25.48
2022-09-26T02:04:47.657Z,25.33
2022-09-26T02:05:39.905Z,25.27
2022-09-26T02:06:25.650Z,25.56
2022-09-26T02:07:18.723Z,25.19
2022-09-26T02:08:06.619Z,25.48
2022-09-26T02:09:00.713Z,25.41
2022-09-26T02:09:46.769Z,25.65
2022-09-26T02:10:40.912Z,25.83
2022-09-26T02:11:25.698Z,25.63
2022-09-26T02:12:00.799Z,25.05
2022-09-26T02:12:36.713Z,25.01
2022-09-26T02:13:26.611Z,24.65
2022-09-26T02:14:33.671Z,25.38
2022-09-26T02:15:11.704Z,25.69
2022-09-26T02:16:00.664Z,25.58
2022-09-26T02:16:40.654Z,25.77
2022-09-26T02:17:31.627Z,24.99
2022-09-26T02:18:12.840Z,25.29
2022-09-26T02:19:04.705Z,25.63
2022-09-26T02:19:58.664Z,25.21
2022-09-26T02:20:41.734Z,25.35
2022-09-26T02:21:27.607Z,25.40
2022-09-26T02:22:08.687Z,25.40
2022-09-26T02:22:48.659Z,25.19
2022-09-26T02:23:28.767Z,24.81
2022-09-26T02:24:09.617Z,24.71
2022-09-26T02:24:49.679Z,24.75
2022-09-26T02:25:29.661Z,25.02
2022-09-26T02:26:09.668Z,24.94
2022-09-26T02:26:49.697Z,24.88
2022-09-26T02:27:30.671Z,24.41
2022-09-26T02:28:10.599Z,24.60
2022-09-26T02:28:51.717Z,24.91
2022-09-26T02:29:32.620Z,25.02
2022-09-26T02:30:13.751Z,28.17
2022-09-26T02:30:55.636Z,31.41
2022-09-26T02:31:41.783Z,29.08
2022-09-26T02:32:25.621Z,28.13
2022-09-26T02:33:06.694Z,31.11
2022-09-26T02:33:46.591Z,28.91
2022-09-26T02:34:26.660Z,29.63
2022-09-26T02:35:07.664Z,30.17
2022-09-26T02:35:54.863Z,27.73
2022-09-26T02:36:35.651Z,27.14
2022-09-26T02:37:15.860Z,28.66
2022-09-26T02:38:02.607Z,29.38
2022-09-26T02:38:37.894Z,29.60
2022-09-26T02:39:24.594Z,29.26
2022-09-26T02:39:59.080Z,30.06
2022-09-26T02:41:08.618Z,30.89
2022-09-26T02:42:03.635Z,30.80
2022-09-26T02:43:11.709Z,30.39
2022-09-26T02:44:08.604Z,28.90
2022-09-26T02:45:18.625Z,28.71
2022-09-26T02:46:29.582Z,28.39
2022-09-26T02:48:04.791Z,26.67
2022-09-26T02:49:22.619Z,26.56
2022-09-26T02:50:46.613Z,25.98
2022-09-26T02:52:08.599Z,24.01
2022-09-26T02:53:31.794Z,25.06
2022-09-26T02:54:36.604Z,26.67
2022-09-26T02:55:59.638Z,29.15
2022-09-26T02:57:08.586Z,30.95
2022-09-26T02:58:32.620Z,32.69
2022-09-26T02:59:35.618Z,32.49
2022-09-26T03:00:42.689Z,31.59
2022-09-26T03:02:07.585Z,31.34
2022-09-26T03:03:17.651Z,32.16
2022-09-26T03:04:00.638Z,31.81
2022-09-26T03:05:03.799Z,31.01
2022-09-26T03:05:44.561Z,30.02
2022-09-26T03:06:29.647Z,28.39
2022-09-26T03:07:13.568Z,28.13
2022-09-26T03:08:24.659Z,27.64
2022-09-26T03:09:05.692Z,27.67
2022-09-26T03:09:47.672Z,27.91
2022-09-26T03:10:27.544Z,27.42
2022-09-26T03:11:10.839Z,26.61
2022-09-26T03:11:51.568Z,26.99
2022-09-26T03:12:34.108Z,26.29
2022-09-26T03:13:21.609Z,24.00
2022-09-26T03:14:02.718Z,23.04
2022-09-26T03:14:45.597Z,24.15
2022-09-26T03:15:27.709Z,25.08
2022-09-26T03:16:08.633Z,24.50
2022-09-26T03:17:03.568Z,25.40
2022-09-26T03:18:05.577Z,25.27
2022-09-26T03:19:05.685Z,25.58
2022-09-26T03:20:24.617Z,25.46
2022-09-26T03:21:18.578Z,24.26
2022-09-26T03:22:12.587Z,23.71
2022-09-26T03:23:06.580Z,21.67
2022-09-26T03:24:00.585Z,22.76
2022-09-26T03:24:55.558Z,23.70
2022-09-26T03:25:42.613Z,24.00
2022-09-26T03:26:25.825Z,24.39
2022-09-26T03:27:12.565Z,24.20
2022-09-26T03:27:47.835Z,24.29
2022-09-26T03:28:38.002Z,24.29
2022-09-26T03:29:11.802Z,24.42
2022-09-26T03:29:58.564Z,23.63
2022-09-26T03:30:32.655Z,24.01
2022-09-26T03:31:13.692Z,24.31
2022-09-26T03:31:53.806Z,23.91
2022-09-26T03:32:34.533Z,24.10
2022-09-26T03:33:14.625Z,24.55
2022-09-26T03:33:58.551Z,24.08
2022-09-26T03:34:39.928Z,23.52
2022-09-26T03:35:19.552Z,23.38
2022-09-26T03:36:00.095Z,22.92
2022-09-26T03:36:40.584Z,22.95
2022-09-26T03:37:20.656Z,22.92
2022-09-26T03:38:00.532Z,23.00
2022-09-26T03:38:40.620Z,23.40
2022-09-26T03:39:20.546Z,23.49
2022-09-26T03:40:00.607Z,23.45
2022-09-26T03:40:40.905Z,23.16
2022-09-26T03:41:22.104Z,23.00
2022-09-26T03:42:03.583Z,23.33
2022-09-26T03:42:43.688Z,23.04
2022-09-26T03:43:23.617Z,22.05
2022-09-26T03:44:04.205Z,22.51
2022-09-26T03:44:44.541Z,23.39
2022-09-26T03:45:24.693Z,23.39
2022-09-26T03:46:12.600Z,23.14
2022-09-26T03:46:52.664Z,23.52
2022-09-26T03:47:33.587Z,24.17
2022-09-26T03:48:13.654Z,24.09
2022-09-26T03:48:53.545Z,24.21
2022-09-26T03:49:33.717Z,24.52
2022-09-26T03:50:14.548Z,24.74
2022-09-26T03:50:54.592Z,24.38
2022-09-26T03:51:34.559Z,23.73
2022-09-26T03:52:17.594Z,24.22
2022-09-26T03:52:58.661Z,24.69
2022-09-26T03:53:43.613Z,24.71
2022-09-26T03:54:23.536Z,24.26
2022-09-26T03:55:03.595Z,24.71
2022-09-26T03:55:43.580Z,24.96
2022-09-26T03:56:26.895Z,23.99
2022-09-26T03:57:06.514Z,22.38
2022-09-26T03:57:46.628Z,21.56
2022-09-26T03:58:26.554Z,22.90
2022-09-26T03:59:06.667Z,22.48
2022-09-26T03:59:46.551Z,21.16
2022-09-26T04:00:27.236Z,21.79
2022-09-26T04:01:15.682Z,22.79
2022-09-26T04:01:55.671Z,23.14
2022-09-26T04:02:35.570Z,23.90
2022-09-26T04:03:15.573Z,23.91
2022-09-26T04:03:57.567Z,23.64
2022-09-26T04:04:37.572Z,23.01
2022-09-26T04:05:18.500Z,23.39
2022-09-26T04:05:58.643Z,23.49
2022-09-26T04:06:38.520Z,23.86
2022-09-26T04:07:18.638Z,23.38
2022-09-26T04:07:58.512Z,22.96
2022-09-26T04:08:38.893Z,23.27
2022-09-26T04:09:19.685Z,23.09
2022-09-26T04:09:59.564Z,23.33
2022-09-26T04:10:39.510Z,23.65
2022-09-26T04:11:21.677Z,23.16
2022-09-26T04:12:01.495Z,23.33
2022-09-26T04:12:41.629Z,23.73
2022-09-26T04:13:49.399Z,23.27
2022-09-26T04:14:28.579Z,22.77
2022-09-26T04:15:22.548Z,22.92
2022-09-26T04:16:17.561Z,22.94
2022-09-26T04:17:11.511Z,22.91
2022-09-26T04:18:05.501Z,22.59
2022-09-26T04:19:00.588Z,22.52
2022-09-26T04:19:47.584Z,22.01
2022-09-26T04:20:21.639Z,21.96
2022-09-26T04:21:12.545Z,22.09
2022-09-26T04:21:47.544Z,23.48
2022-09-26T04:22:34.515Z,26.17
2022-09-26T04:23:08.592Z,28.21
2022-09-26T04:23:56.533Z,28.81
2022-09-26T04:24:30.642Z,28.73
2022-09-26T04:25:11.531Z,28.98
2022-09-26T04:25:52.056Z,30.41
2022-09-26T04:26:31.531Z,29.63
2022-09-26T04:27:25.504Z,28.36
2022-09-26T04:28:19.507Z,27.00
2022-09-26T04:29:13.600Z,25.63
2022-09-26T04:30:07.517Z,25.10
2022-09-26T04:30:48.547Z,23.76
2022-09-26T04:31:29.630Z,21.98
2022-09-26T04:32:09.512Z,22.66
2022-09-26T04:32:49.576Z,23.94
2022-09-26T04:33:29.535Z,24.09
2022-09-26T04:34:11.484Z,24.65
2022-09-26T04:34:51.554Z,24.31
2022-09-26T04:35:31.590Z,24.17
2022-09-26T04:36:14.535Z,23.90
2022-09-26T04:36:54.576Z,23.51
2022-09-26T04:37:34.563Z,23.06
2022-09-26T04:38:15.608Z,23.05
2022-09-26T04:38:55.485Z,22.86
2022-09-26T04:39:35.989Z,23.30
2022-09-26T04:40:17.525Z,22.95
2022-09-26T04:40:57.636Z,23.60
2022-09-26T04:41:38.526Z,24.05
2022-09-26T04:42:18.660Z,23.80
2022-09-26T04:42:58.472Z,23.73
2022-09-26T04:43:38.619Z,23.51
2022-09-26T04:44:19.459Z,23.21
2022-09-26T04:44:59.560Z,23.71
2022-09-26T04:45:39.525Z,23.76
2022-09-26T04:46:29.647Z,22.83
2022-09-26T04:47:10.535Z,22.54
2022-09-26T04:47:50.623Z,23.00
2022-09-26T04:48:31.483Z,22.56
2022-09-26T04:49:11.615Z,21.85
2022-09-26T04:49:52.480Z,22.10
2022-09-26T04:50:32.589Z,22.35
2022-09-26T04:51:14.529Z,22.60
2022-09-26T04:51:55.788Z,22.90
2022-09-26T04:52:35.481Z,23.08
2022-09-26T04:53:16.164Z,22.96
2022-09-26T04:53:57.510Z,23.01
2022-09-26T04:54:38.449Z,22.36
2022-09-26T04:55:18.454Z,22.59
2022-09-26T04:55:58.557Z,22.55
2022-09-26T04:56:38.451Z,23.64
2022-09-26T04:57:20.039Z,24.21
2022-09-26T04:58:00.563Z,23.99
2022-09-26T04:58:42.147Z,23.10
2022-09-26T04:59:22.487Z,23.27
2022-09-26T05:00:02.532Z,23.21
2022-09-26T05:00:42.517Z,24.13
2022-09-26T05:01:25.632Z,24.54
2022-09-26T05:02:05.525Z,24.88
2022-09-26T05:02:48.369Z,25.06
2022-09-26T05:03:28.505Z,25.40
2022-09-26T05:04:10.055Z,25.79
2022-09-26T05:04:50.481Z,26.09
2022-09-26T05:05:31.278Z,26.52
2022-09-26T05:06:15.495Z,25.89
2022-09-26T05:06:57.865Z,25.70
2022-09-26T05:07:38.442Z,25.75
2022-09-26T05:08:18.510Z,24.55
2022-09-26T05:08:59.452Z,23.70
2022-09-26T05:09:39.626Z,23.70
2022-09-26T05:10:19.460Z,24.67
2022-09-26T05:11:02.204Z,24.99
2022-09-26T05:11:42.462Z,24.73
2022-09-26T05:12:22.546Z,24.15
2022-09-26T05:13:06.467Z,23.58
2022-09-26T05:13:50.074Z,23.54
2022-09-26T05:14:34.459Z,23.42
2022-09-26T05:15:15.550Z,24.20
2022-09-26T05:16:01.583Z,23.85
2022-09-26T05:16:41.740Z,23.02
2022-09-26T05:17:22.475Z,23.02
2022-09-26T05:18:04.010Z,22.91
2022-09-26T05:18:45.479Z,22.79
2022-09-26T05:19:26.794Z,22.90
2022-09-26T05:20:07.466Z,23.13
2022-09-26T05:20:51.544Z,23.13
2022-09-26T05:21:31.440Z,23.94
2022-09-26T05:22:11.683Z,24.13
2022-09-26T05:22:51.407Z,23.52
2022-09-26T05:23:51.226Z,22.10
2022-09-26T05:24:50.488Z,21.17
2022-09-26T05:25:49.464Z,20.59
2022-09-26T05:26:23.596Z,20.69
2022-09-26T05:27:12.443Z,21.33
2022-09-26T05:27:53.487Z,21.56
2022-09-26T05:28:33.599Z,20.89
2022-09-26T05:29:13.534Z,21.45
2022-09-26T05:29:53.412Z,22.23
2022-09-26T05:30:33.476Z,23.00
2022-09-26T05:31:15.547Z,22.17
2022-09-26T05:31:56.473Z,22.05
2022-09-26T05:32:36.489Z,21.89
2022-09-26T05:33:16.555Z,22.11
2022-09-26T05:33:58.605Z,22.95
2022-09-26T05:34:38.504Z,22.76
2022-09-26T05:35:19.620Z,22.61
2022-09-26T05:35:59.492Z,22.59
2022-09-26T05:36:39.481Z,22.71
2022-09-26T05:37:19.528Z,23.67
2022-09-26T05:38:09.424Z,22.92
2022-09-26T05:38:49.521Z,22.54
2022-09-26T05:39:48.418Z,22.73
2022-09-26T05:40:47.491Z,23.09
2022-09-26T05:41:27.489Z,22.84
2022-09-26T05:42:07.617Z,23.48
2022-09-26T05:42:41.509Z,23.52
2022-09-26T05:43:15.147Z,23.84
2022-09-26T05:43:55.424Z,22.90
2022-09-26T05:44:30.879Z,22.40
2022-09-26T05:45:05.744Z,22.26
2022-09-26T05:45:45.449Z,21.51
2022-09-26T05:46:19.557Z,21.58
2022-09-26T05:46:54.007Z,21.95
2022-09-26T05:47:35.447Z,22.89
2022-09-26T05:48:09.509Z,23.30
2022-09-26T05:48:43.078Z,23.63
2022-09-26T05:49:23.423Z,22.23
2022-09-26T05:49:57.456Z,21.14
2022-09-26T05:50:31.506Z,21.63
2022-09-26T05:51:22.451Z,22.26
2022-09-26T05:51:56.729Z,22.00
2022-09-26T05:52:29.908Z,22.24
2022-09-26T05:53:10.465Z,22.88
2022-09-26T05:53:44.451Z,23.33
2022-09-26T05:54:17.994Z,23.05
2022-09-26T05:54:58.412Z,23.08
2022-09-26T05:55:33.499Z,23.13
2022-09-26T05:56:08.654Z,23.00
2022-09-26T05:56:48.416Z,23.98
2022-09-26T05:57:22.520Z,24.74
2022-09-26T05:57:58.912Z,25.83
2022-09-26T05:58:40.513Z,26.55
2022-09-26T05:59:14.651Z,26.24
2022-09-26T05:59:47.904Z,26.58
2022-09-26T06:00:27.392Z,26.77
2022-09-26T06:01:01.564Z,26.58
2022-09-26T06:01:35.376Z,26.69
2022-09-26T06:03:12.497Z,25.95
2022-09-26T06:03:53.470Z,25.52
2022-09-26T06:04:33.697Z,26.23
2022-09-26T06:05:13.417Z,26.36
2022-09-26T06:05:53.536Z,25.61
2022-09-26T06:06:33.405Z,26.10
2022-09-26T06:07:13.491Z,26.17
2022-09-26T06:07:53.417Z,26.13
2022-09-26T06:08:34.514Z,25.85
2022-09-26T06:09:14.518Z,25.79
2022-09-26T06:09:54.502Z,25.58
2022-09-26T06:10:34.417Z,25.83
2022-09-26T06:11:22.590Z,26.24
2022-09-26T06:12:02.382Z,26.88
2022-09-26T06:12:42.708Z,26.29
2022-09-26T06:13:23.422Z,26.33
2022-09-26T06:14:04.470Z,26.42
2022-09-26T06:14:44.420Z,25.91
2022-09-26T06:15:24.910Z,25.98
2022-09-26T06:16:12.438Z,25.84
2022-09-26T06:16:52.531Z,26.05
2022-09-26T06:17:33.424Z,25.36
2022-09-26T06:18:13.507Z,25.48
2022-09-26T06:18:54.385Z,25.56
2022-09-26T06:19:34.468Z,25.20
2022-09-26T06:20:15.445Z,26.00
2022-09-26T06:20:49.085Z,25.21
2022-09-26T06:21:36.376Z,26.15
2022-09-26T06:22:16.629Z,26.34
2022-09-26T06:22:56.453Z,25.48
2022-09-26T06:23:37.501Z,24.90
2022-09-26T06:24:18.407Z,25.86
2022-09-26T06:24:59.081Z,26.39
2022-09-26T06:25:39.403Z,25.98
2022-09-26T06:26:23.593Z,25.06
2022-09-26T06:27:03.395Z,24.08
2022-09-26T06:27:43.588Z,22.65
2022-09-26T06:28:25.385Z,22.83
2022-09-26T06:29:07.505Z,22.88
2022-09-26T06:29:47.396Z,21.76
2022-09-26T06:30:27.622Z,20.89
2022-09-26T06:31:14.449Z,20.94
2022-09-26T06:31:54.569Z,21.55
2022-09-26T06:32:35.382Z,21.54
2022-09-26T06:33:15.557Z,21.01
2022-09-26T06:33:59.395Z,19.61
2022-09-26T06:34:39.425Z,19.96
2022-09-26T06:35:20.358Z,20.05
2022-09-26T06:36:21.424Z,19.76
2022-09-26T06:37:15.392Z,19.84
2022-09-26T06:38:10.385Z,19.05
2022-09-26T06:39:05.505Z,18.65
2022-09-26T06:39:59.685Z,18.50
2022-09-26T06:40:53.385Z,17.29
2022-09-26T06:41:41.387Z,16.86
2022-09-26T06:42:15.478Z,15.89
2022-09-26T06:43:02.368Z,15.60
2022-09-26T06:43:36.490Z,15.88
2022-09-26T06:44:23.369Z,15.56
2022-09-26T06:44:57.478Z,15.36
2022-09-26T06:45:46.349Z,16.09
2022-09-26T06:46:21.618Z,16.24
2022-09-26T06:47:01.436Z,15.54
2022-09-26T06:47:41.423Z,15.40
2022-09-26T06:48:24.767Z,16.25
2022-09-26T06:49:06.844Z,16.33
2022-09-26T06:49:46.373Z,16.49
2022-09-26T06:50:27.462Z,17.46
2022-09-26T06:51:08.362Z,17.50
2022-09-26T06:51:52.744Z,17.05
2022-09-26T06:52:33.391Z,16.16
2022-09-26T06:53:13.440Z,16.09
2022-09-26T06:53:54.345Z,16.73
2022-09-26T06:54:34.441Z,16.84
2022-09-26T06:55:16.389Z,17.02
2022-09-26T06:55:56.468Z,17.35
2022-09-26T06:56:36.368Z,16.34
2022-09-26T06:57:16.445Z,16.86
2022-09-26T06:57:56.414Z,16.91
2022-09-26T06:58:36.431Z,16.34
2022-09-26T06:59:17.367Z,16.25
2022-09-26T06:59:57.475Z,16.41
2022-09-26T07:00:37.430Z,16.83
2022-09-26T07:01:18.506Z,16.73
2022-09-26T07:01:59.459Z,17.08
2022-09-26T07:03:02.655Z,16.95
2022-09-26T07:03:56.343Z,16.31
2022-09-26T07:04:50.369Z,16.85
2022-09-26T07:05:44.355Z,16.21
2022-09-26T07:06:38.380Z,15.75
2022-09-26T07:07:32.354Z,15.61
2022-09-26T07:08:19.408Z,16.30
2022-09-26T07:09:12.174Z,16.55
2022-09-26T07:09:59.429Z,16.41
2022-09-26T07:10:36.476Z,16.13
2022-09-26T07:12:09.402Z,16.44
2022-09-26T07:12:17.450Z,15.60
2022-09-26T07:13:11.331Z,15.38
2022-09-26T07:13:52.359Z,16.61
2022-09-26T07:14:50.089Z,17.19
2022-09-26T07:15:48.404Z,16.44
2022-09-26T07:16:42.485Z,16.63
2022-09-26T07:17:36.373Z,16.77
2022-09-26T07:18:30.344Z,17.08
2022-09-26T07:19:19.394Z,17.65
2022-09-26T07:19:58.404Z,17.99
2022-09-26T07:20:56.612Z,18.11
2022-09-26T07:21:30.413Z,17.23
2022-09-26T07:22:17.398Z,17.24
2022-09-26T07:22:52.979Z,17.61
2022-09-26T07:23:40.329Z,17.33
2022-09-26T07:24:14.532Z,17.55
2022-09-26T07:24:56.391Z,17.38
2022-09-26T07:25:39.490Z,17.80
2022-09-26T07:26:20.381Z,17.63
2022-09-26T07:27:01.276Z,17.42
2022-09-26T07:27:42.355Z,17.67
2022-09-26T07:28:22.472Z,17.51
2022-09-26T07:29:03.333Z,17.05
2022-09-26T07:29:43.700Z,17.20
2022-09-26T07:30:24.411Z,17.13
2022-09-26T07:31:05.464Z,17.58
2022-09-26T07:31:45.380Z,17.86
2022-09-26T07:32:27.441Z,17.66
2022-09-26T07:33:12.309Z,18.19
2022-09-26T07:33:52.886Z,17.94
2022-09-26T07:34:34.356Z,17.61
2022-09-26T07:35:14.516Z,17.85
2022-09-26T07:35:55.381Z,18.36
2022-09-26T07:36:35.692Z,18.40
2022-09-26T07:37:15.343Z,17.45
2022-09-26T07:37:59.046Z,17.54
2022-09-26T07:38:39.324Z,17.71
2022-09-26T07:39:19.440Z,17.33
2022-09-26T07:40:01.756Z,16.92
2022-09-26T07:40:45.316Z,16.98
2022-09-26T07:41:26.377Z,16.86
2022-09-26T07:42:07.197Z,16.91
2022-09-26T07:43:09.411Z,17.04
2022-09-26T07:46:07.156Z,16.91
2022-09-26T07:47:06.398Z,17.00
2022-09-26T07:48:04.863Z,16.00
2022-09-26T07:49:03.347Z,16.31
2022-09-26T07:50:01.679Z,16.75
2022-09-26T07:50:42.318Z,18.00
2022-09-26T07:51:24.232Z,19.36
2022-09-26T07:52:07.367Z,19.34
2022-09-26T07:52:51.919Z,19.00
2022-09-26T07:53:34.290Z,18.69
2022-09-26T07:54:14.525Z,18.66
2022-09-26T07:54:55.328Z,18.85
2022-09-26T07:55:55.340Z,18.59
2022-09-26T07:56:37.312Z,17.70
2022-09-26T07:57:26.340Z,17.60
2022-09-26T07:58:20.339Z,16.76
2022-09-26T07:59:14.285Z,17.20
2022-09-26T08:00:08.302Z,19.11
2022-09-26T08:01:02.330Z,19.66
2022-09-26T08:01:56.382Z,20.17
2022-09-26T08:02:43.387Z,19.71
2022-09-26T08:03:18.181Z,19.94
2022-09-26T08:04:05.275Z,19.36
2022-09-26T08:04:39.357Z,18.26
2022-09-26T08:05:26.303Z,17.73
2022-09-26T08:06:05.508Z,18.17
2022-09-26T08:06:52.276Z,18.35
2022-09-26T08:07:26.425Z,19.25
2022-09-26T08:08:06.416Z,22.41
2022-09-26T08:08:47.322Z,23.39
2022-09-26T08:09:28.465Z,19.70
2022-09-26T08:10:08.431Z,16.10
2022-09-26T08:10:50.270Z,14.32
2022-09-26T08:11:31.040Z,14.45
2022-09-26T08:12:11.347Z,14.49
2022-09-26T08:12:51.348Z,14.71
2022-09-26T08:13:33.335Z,15.26
2022-09-26T08:14:13.369Z,15.18
2022-09-26T08:14:55.289Z,15.45
2022-09-26T08:15:35.435Z,15.59
2022-09-26T08:16:16.331Z,15.79
2022-09-26T08:16:57.403Z,15.64
2022-09-26T08:17:40.284Z,15.91
2022-09-26T08:18:20.387Z,16.98
2022-09-26T08:19:01.336Z,17.79
2022-09-26T08:19:41.498Z,17.25
2022-09-26T08:20:21.345Z,15.89
2022-09-26T08:21:01.437Z,15.73
2022-09-26T08:21:42.314Z,15.74
2022-09-26T08:22:22.438Z,15.99
2022-09-26T08:23:03.288Z,16.45
2022-09-26T08:23:43.412Z,18.38
2022-09-26T08:24:23.322Z,20.08
2022-09-26T08:25:06.487Z,18.04
2022-09-26T08:25:48.260Z,17.17
2022-09-26T08:26:44.909Z,15.81
2022-09-26T08:27:39.303Z,14.80
2022-09-26T08:28:34.339Z,15.34
2022-09-26T08:29:30.333Z,15.25
2022-09-26T08:30:24.271Z,15.55
2022-09-26T08:31:19.309Z,15.41
2022-09-26T08:32:15.316Z,14.94
2022-09-26T08:33:09.277Z,14.75
2022-09-26T08:34:03.333Z,15.00
2022-09-26T08:34:51.328Z,16.31
2022-09-26T08:35:25.376Z,15.98
2022-09-26T08:36:17.275Z,14.38
2022-09-26T08:36:52.619Z,13.68
2022-09-26T08:37:39.254Z,13.70
2022-09-26T08:38:15.169Z,13.86
2022-09-26T08:39:03.267Z,13.93
2022-09-26T08:39:37.339Z,14.91
2022-09-26T08:40:18.298Z,16.11
2022-09-26T08:41:04.769Z,15.25
2022-09-26T08:42:16.297Z,14.93
2022-09-26T08:43:21.457Z,15.90
2022-09-26T08:44:39.274Z,16.14
2022-09-26T08:46:33.401Z,16.23
2022-09-26T08:47:38.269Z,14.45
2022-09-26T08:48:55.246Z,13.25
2022-09-26T08:50:08.259Z,14.13
2022-09-26T08:51:06.266Z,14.85
2022-09-26T08:51:59.292Z,14.19
2022-09-26T08:52:50.394Z,14.49
2022-09-26T08:53:48.298Z,14.66
2022-09-26T08:54:44.386Z,14.57
2022-09-26T08:55:37.267Z,13.64
2022-09-26T08:56:13.369Z,13.82
2022-09-26T08:57:04.285Z,13.94
2022-09-26T08:57:44.760Z,14.02
2022-09-26T08:58:44.239Z,14.51
2022-09-26T08:59:25.353Z,14.31
2022-09-26T09:00:28.235Z,13.74
2022-09-26T09:01:05.438Z,13.45
2022-09-26T09:01:53.364Z,13.10
2022-09-26T09:02:57.307Z,13.84
2022-09-26T09:04:15.415Z,14.07
2022-09-26T09:05:33.271Z,13.65
2022-09-26T09:06:28.241Z,12.71
2022-09-26T09:07:37.274Z,12.82
2022-09-26T09:08:28.337Z,13.75
2022-09-26T09:09:08.371Z,13.61
2022-09-26T09:09:48.248Z,12.75
2022-09-26T09:10:47.363Z,12.00
2022-09-26T09:11:49.118Z,10.54
2022-09-26T09:13:00.330Z,7.47
2022-09-26T09:13:57.283Z,6.34
2022-09-26T09:14:37.362Z,6.28
2022-09-26T09:15:40.248Z,5.99
2022-09-26T09:16:32.314Z,6.22
2022-09-26T09:17:29.216Z,6.74
2022-09-26T09:18:51.364Z,7.36
2022-09-26T09:19:57.274Z,7.47
2022-09-26T09:20:43.348Z,7.93
2022-09-26T09:21:29.230Z,7.43
2022-09-26T09:22:21.422Z,7.03
2022-09-26T09:23:10.200Z,7.14
2022-09-26T09:24:22.235Z,7.28
2022-09-26T09:25:26.261Z,8.21
2022-09-26T09:28:18.255Z,8.98
2022-09-26T09:29:24.234Z,9.32
2022-09-26T09:30:38.259Z,9.86
2022-09-26T09:31:34.265Z,9.94
2022-09-26T09:32:31.251Z,9.35
2022-09-26T09:33:41.234Z,9.90
2022-09-26T09:34:41.233Z,9.85
2022-09-26T09:35:48.253Z,8.98
2022-09-26T09:36:53.213Z,8.56
2022-09-26T09:37:55.207Z,8.38
2022-09-26T09:38:52.262Z,8.32
2022-09-26T09:39:55.235Z,8.77
2022-09-26T09:40:54.350Z,8.80
2022-09-26T09:42:00.228Z,9.69
2022-09-26T09:43:02.245Z,10.04
2022-09-26T09:44:01.271Z,9.60
2022-09-26T09:44:58.229Z,10.32
2022-09-26T09:46:02.281Z,9.88
2022-09-26T09:46:58.282Z,8.85
2022-09-26T09:47:53.256Z,9.04
2022-09-26T09:48:47.245Z,9.45
2022-09-26T09:49:41.259Z,9.61
2022-09-26T09:50:53.216Z,9.51
2022-09-26T09:51:51.260Z,9.34
2022-09-26T09:52:49.312Z,9.60
2022-09-26T09:53:51.188Z,10.14
2022-09-26T09:54:49.539Z,10.44
2022-09-26T09:55:51.217Z,10.13
2022-09-26T09:56:45.405Z,10.23
2022-09-26T09:57:49.263Z,10.81
2022-09-26T09:58:44.357Z,9.77
2022-09-26T09:59:32.201Z,9.61
2022-09-26T10:00:22.486Z,9.84
2022-09-26T10:01:22.242Z,9.52
2022-09-26T10:02:34.374Z,9.85
2022-09-26T10:03:31.230Z,9.64
2022-09-26T10:04:14.610Z,9.81
2022-09-26T10:05:06.195Z,9.57
2022-09-26T10:05:51.749Z,9.34
2022-09-26T10:06:45.393Z,9.45
2022-09-26T10:07:27.298Z,9.56